createdAt,value
2022-09-15T00:10:01.354Z,99833.69
2022-09-15T00:20:06.144Z,99835.94
2022-09-15T00:30:08.459Z,99835.38
2022-09-15T00:40:10.603Z,99840.03
2022-09-15T00:50:16.387Z,99835.94
2022-09-15T01:00:21.015Z,99855.25
2022-09-15T01:10:27.119Z,99859.63
2022-09-15T01:20:53.359Z,99857.09
2022-09-15T01:31:10.981Z,99854.72
2022-09-15T01:41:27.237Z,99862.97
2022-09-15T01:51:31.779Z,99863.56
2022-09-15T02:02:10.915Z,99862.72
2022-09-15T02:12:20.213Z,99868.63
2022-09-15T02:22:29.564Z,99862.91
2022-09-15T02:32:34.122Z,99846.00
2022-09-15T02:42:36.348Z,99843.97
2022-09-15T02:52:41.571Z,99846.38
2022-09-15T03:02:46.600Z,99848.97
2022-09-15T03:12:51.605Z,99856.66
2022-09-15T03:22:56.152Z,99869.09
2022-09-15T03:32:57.865Z,99867.16
2022-09-15T03:42:59.859Z,99879.25
2022-09-15T03:53:01.988Z,99873.09
2022-09-15T04:03:04.142Z,99861.22
2022-09-15T04:13:05.888Z,99878.28
2022-09-15T04:23:07.601Z,99868.09
2022-09-15T04:33:09.302Z,99866.22
2022-09-15T04:43:10.954Z,99874.13
2022-09-15T04:53:12.802Z,99866.50
2022-09-15T05:03:14.512Z,99889.59
2022-09-15T05:13:16.324Z,99885.19
2022-09-15T05:23:18.424Z,99897.91
2022-09-15T05:33:21.822Z,99903.75
2022-09-15T05:43:23.596Z,99892.56
2022-09-15T05:53:26.064Z,99897.00
2022-09-15T06:03:30.971Z,99914.81
2022-09-15T06:13:33.207Z,99914.72
2022-09-15T06:23:35.372Z,99914.81
2022-09-15T06:33:37.263Z,99941.22
2022-09-15T06:43:39.618Z,99934.22
2022-09-15T06:53:41.424Z,99937.38
2022-09-15T07:03:44.164Z,99945.00
2022-09-15T07:13:48.449Z,99951.66
2022-09-15T07:23:50.443Z,99969.44
2022-09-15T07:33:52.104Z,99982.72
2022-09-15T07:43:56.422Z,99984.34
2022-09-15T07:53:58.564Z,99999.47
2022-09-15T08:04:00.431Z,100003.63
2022-09-15T08:14:03.305Z,100002.25
2022-09-15T08:24:05.113Z,100013.53
2022-09-15T08:34:07.127Z,100018.88
2022-09-15T08:44:42.957Z,100027.44
2022-09-15T08:54:44.906Z,100025.66
2022-09-15T09:04:52.523Z,100046.13
2022-09-15T09:14:54.286Z,100049.75
2022-09-15T09:24:59.363Z,100060.72
2022-09-15T09:35:29.785Z,100064.31
2022-09-15T09:45:31.497Z,100070.16
2022-09-15T09:55:33.264Z,100068.19
2022-09-15T10:05:35.267Z,100067.09
2022-09-15T10:15:40.592Z,100072.13
2022-09-15T10:25:58.680Z,100074.53
2022-09-15T10:36:05.872Z,100065.63
2022-09-15T10:46:13.867Z,100060.31
2022-09-15T10:56:21.975Z,100054.59
2022-09-15T11:06:32.547Z,100046.75
2022-09-15T11:16:53.295Z,100055.97
2022-09-15T11:27:17.109Z,100059.38
2022-09-15T11:37:24.105Z,100068.44
2022-09-15T11:47:25.903Z,100073.34
2022-09-15T11:57:36.572Z,100091.53
2022-09-15T12:07:50.170Z,100085.06
2022-09-15T12:18:37.054Z,100084.00
2022-09-15T12:29:04.775Z,100080.41
2022-09-15T12:39:24.293Z,100081.88
2022-09-15T12:49:36.636Z,100082.91
2022-09-15T12:59:38.386Z,100076.59
2022-09-15T13:09:57.252Z,100083.44
2022-09-15T13:20:07.321Z,100087.94
2022-09-15T13:30:24.190Z,100087.88
2022-09-15T13:40:44.402Z,100073.44
2022-09-15T13:51:13.174Z,100071.88
2022-09-15T14:01:17.198Z,100062.25
2022-09-15T14:11:26.251Z,100059.53
2022-09-15T14:21:33.600Z,100063.28
2022-09-15T14:31:41.198Z,100058.59
2022-09-15T14:41:42.941Z,100056.03
2022-09-15T14:51:46.787Z,100070.22
2022-09-15T15:02:19.737Z,100087.88
2022-09-15T15:12:29.187Z,100112.06
2022-09-15T15:22:30.965Z,100126.59
2022-09-15T15:32:34.258Z,100130.84
2022-09-15T15:42:36.008Z,100127.69
2022-09-15T15:52:37.910Z,100116.09
2022-09-15T16:02:39.796Z,100120.38
2022-09-15T16:12:41.452Z,100126.06
2022-09-15T16:22:43.955Z,100119.84
2022-09-15T16:32:45.647Z,100113.44
2022-09-15T16:42:48.372Z,100109.41
2022-09-15T16:52:50.603Z,100125.50
2022-09-15T17:02:52.337Z,100121.81
2022-09-15T17:12:54.459Z,100130.53
2022-09-15T17:22:57.380Z,100129.88
2022-09-15T17:33:06.644Z,100136.28
2022-09-15T17:43:16.634Z,100132.13
2022-09-15T17:53:28.449Z,100127.81
2022-09-15T18:03:34.824Z,100140.38
2022-09-15T18:13:37.896Z,100151.13
2022-09-15T18:23:42.351Z,100165.19
2022-09-15T18:33:45.058Z,100170.56
2022-09-15T18:43:49.388Z,100179.34
2022-09-15T18:53:54.297Z,100191.25
2022-09-15T19:03:57.724Z,100198.25
2022-09-15T19:14:00.323Z,100191.75
2022-09-15T19:24:02.290Z,100203.66
2022-09-15T19:34:04.749Z,100210.22
2022-09-15T19:44:09.513Z,100199.91
2022-09-15T19:54:12.557Z,100221.41
2022-09-15T20:04:15.173Z,100223.84
2022-09-15T20:14:16.871Z,100238.22
2022-09-15T20:24:20.248Z,100231.91
2022-09-15T20:34:22.669Z,100237.03
2022-09-15T20:44:24.778Z,100248.72
2022-09-15T20:54:26.506Z,100251.19
2022-09-15T21:04:28.235Z,100261.19
2022-09-15T21:14:30.650Z,100265.34
2022-09-15T21:24:32.460Z,100269.47
2022-09-15T21:34:34.356Z,100269.31
2022-09-15T21:44:36.346Z,100270.75
2022-09-15T21:54:38.830Z,100285.56
2022-09-15T22:04:41.081Z,100277.19
2022-09-15T22:14:42.793Z,100281.28
2022-09-15T22:24:48.279Z,100282.56
2022-09-15T22:34:50.297Z,100275.31
2022-09-15T22:44:52.250Z,100293.50
2022-09-15T22:54:53.945Z,100293.94
2022-09-15T23:04:55.696Z,100296.78
2022-09-15T23:14:57.593Z,100290.50
2022-09-15T23:24:59.342Z,100280.03
2022-09-15T23:35:00.934Z,100271.31
2022-09-15T23:45:02.737Z,100277.91
2022-09-15T23:55:04.898Z,100274.81
